Terminal Aerodrome Forecast
Issued by NWS Northern Indiana

Home | Current Version | Previous Version | Graphics & Text | Print | Product List | Glossary On
Versions: 1 2 3 4 5 6 7 8 9 10 11 12 13 14 15
000
FTUS43 KIWX 221900 AAA
TAFFWA
TAF AMD
KFWA 221901Z 2219/2318 09008KT 6SM HZ BKN015 OVC040
     FM222200 10010KT 5SM -RA BR OVC010
     FM230600 11014KT 2SM -RA OVC007
     FM231200 18008KT 2SM -DZ OVC007=

USA.gov is the U.S. government's official web portal to all federal, state and local government web resources and services.